sensor_id;sensor_type;location;lat;lon;timestamp;P1;durP1;ratioP1;P2;durP2;ratioP2
54539;SDS011;40438;52.992;18.604;2023-11-21T00:01:23;11.05;;;5.35;;
54539;SDS011;40438;52.992;18.604;2023-11-21T00:03:49;16.73;;;5.93;;
54539;SDS011;40438;52.992;18.604;2023-11-21T00:06:15;11.18;;;5.45;;
54539;SDS011;40438;52.992;18.604;2023-11-21T00:08:41;12.77;;;5.72;;
54539;SDS011;40438;52.992;18.604;2023-11-21T00:11:07;10.30;;;5.65;;
54539;SDS011;40438;52.992;18.604;2023-11-21T00:13:32;12.40;;;4.95;;
54539;SDS011;40438;52.992;18.604;2023-11-21T00:16:00;14.02;;;6.03;;
54539;SDS011;40438;52.992;18.604;2023-11-21T00:18:25;13.18;;;6.25;;
54539;SDS011;40438;52.992;18.604;2023-11-21T00:20:51;14.88;;;6.05;;
54539;SDS011;40438;52.992;18.604;2023-11-21T00:23:17;16.48;;;6.28;;
54539;SDS011;40438;52.992;18.604;2023-11-21T00:25:43;11.68;;;6.13;;
54539;SDS011;40438;52.992;18.604;2023-11-21T00:28:09;16.02;;;6.28;;
54539;SDS011;40438;52.992;18.604;2023-11-21T00:30:34;15.85;;;7.00;;
54539;SDS011;40438;52.992;18.604;2023-11-21T00:33:02;13.13;;;5.78;;
54539;SDS011;40438;52.992;18.604;2023-11-21T00:35:27;9.07;;;5.03;;
54539;SDS011;40438;52.992;18.604;2023-11-21T00:37:53;15.88;;;5.93;;
54539;SDS011;40438;52.992;18.604;2023-11-21T00:40:19;14.70;;;5.88;;
54539;SDS011;40438;52.992;18.604;2023-11-21T00:42:45;13.57;;;6.10;;
54539;SDS011;40438;52.992;18.604;2023-11-21T00:45:11;17.80;;;6.25;;
54539;SDS011;40438;52.992;18.604;2023-11-21T00:47:37;15.18;;;6.28;;
54539;SDS011;40438;52.992;18.604;2023-11-21T00:50:04;17.80;;;7.40;;
54539;SDS011;40438;52.992;18.604;2023-11-21T00:52:30;16.45;;;7.30;;
54539;SDS011;40438;52.992;18.604;2023-11-21T00:54:56;14.80;;;5.25;;
54539;SDS011;40438;52.992;18.604;2023-11-21T00:57:22;15.27;;;5.78;;
54539;SDS011;40438;52.992;18.604;2023-11-21T00:59:49;15.73;;;6.40;;
54539;SDS011;40438;52.992;18.604;2023-11-21T01:02:15;11.48;;;5.80;;
54539;SDS011;40438;52.992;18.604;2023-11-21T01:04:41;14.45;;;6.50;;
54539;SDS011;40438;52.992;18.604;2023-11-21T01:07:08;12.57;;;6.40;;
54539;SDS011;40438;52.992;18.604;2023-11-21T01:09:35;13.15;;;6.32;;
54539;SDS011;40438;52.992;18.604;2023-11-21T01:12:00;12.32;;;6.50;;
54539;SDS011;40438;52.992;18.604;2023-11-21T01:14:26;15.38;;;7.32;;
54539;SDS011;40438;52.992;18.604;2023-11-21T01:16:52;16.65;;;6.90;;
54539;SDS011;40438;52.992;18.604;2023-11-21T01:19:18;16.10;;;6.80;;
54539;SDS011;40438;52.992;18.604;2023-11-21T01:21:44;17.98;;;6.88;;
54539;SDS011;40438;52.992;18.604;2023-11-21T01:24:11;12.02;;;6.43;;
54539;SDS011;40438;52.992;18.604;2023-11-21T01:26:37;15.88;;;6.70;;
54539;SDS011;40438;52.992;18.604;2023-11-21T01:29:03;15.02;;;6.50;;
54539;SDS011;40438;52.992;18.604;2023-11-21T01:31:29;15.98;;;7.38;;
54539;SDS011;40438;52.992;18.604;2023-11-21T01:33:54;15.32;;;6.80;;
54539;SDS011;40438;52.992;18.604;2023-11-21T01:36:20;20.85;;;6.82;;
54539;SDS011;40438;52.992;18.604;2023-11-21T01:38:46;20.42;;;8.98;;
54539;SDS011;40438;52.992;18.604;2023-11-21T01:41:13;15.23;;;6.30;;
54539;SDS011;40438;52.992;18.604;2023-11-21T01:43:40;14.20;;;7.07;;
54539;SDS011;40438;52.992;18.604;2023-11-21T01:46:06;16.42;;;6.03;;
54539;SDS011;40438;52.992;18.604;2023-11-21T01:48:33;15.10;;;6.95;;
54539;SDS011;40438;52.992;18.604;2023-11-21T01:50:59;15.88;;;7.05;;
54539;SDS011;40438;52.992;18.604;2023-11-21T01:53:25;14.13;;;5.47;;
54539;SDS011;40438;52.992;18.604;2023-11-21T01:55:52;10.93;;;6.03;;
54539;SDS011;40438;52.992;18.604;2023-11-21T01:58:20;12.32;;;5.85;;
54539;SDS011;40438;52.992;18.604;2023-11-21T02:00:46;16.00;;;5.97;;
54539;SDS011;40438;52.992;18.604;2023-11-21T02:03:12;13.23;;;5.25;;
54539;SDS011;40438;52.992;18.604;2023-11-21T02:05:37;16.90;;;5.63;;
54539;SDS011;40438;52.992;18.604;2023-11-21T02:08:03;9.48;;;5.05;;
54539;SDS011;40438;52.992;18.604;2023-11-21T02:10:30;17.55;;;6.03;;
54539;SDS011;40438;52.992;18.604;2023-11-21T02:12:57;11.90;;;6.07;;
54539;SDS011;40438;52.992;18.604;2023-11-21T02:15:24;11.27;;;5.82;;
54539;SDS011;40438;52.992;18.604;2023-11-21T02:17:50;14.20;;;5.63;;
54539;SDS011;40438;52.992;18.604;2023-11-21T02:20:16;10.32;;;5.40;;
54539;SDS011;40438;52.992;18.604;2023-11-21T02:22:43;13.35;;;5.10;;
54539;SDS011;40438;52.992;18.604;2023-11-21T02:25:10;11.85;;;5.05;;
54539;SDS011;40438;52.992;18.604;2023-11-21T02:27:36;10.57;;;4.57;;
54539;SDS011;40438;52.992;18.604;2023-11-21T02:30:02;13.88;;;5.55;;
54539;SDS011;40438;52.992;18.604;2023-11-21T02:32:28;15.48;;;5.43;;
54539;SDS011;40438;52.992;18.604;2023-11-21T02:34:54;9.60;;;4.72;;
54539;SDS011;40438;52.992;18.604;2023-11-21T02:37:20;10.23;;;5.00;;
54539;SDS011;40438;52.992;18.604;2023-11-21T02:39:46;14.68;;;5.38;;
54539;SDS011;40438;52.992;18.604;2023-11-21T02:42:13;10.48;;;5.15;;
54539;SDS011;40438;52.992;18.604;2023-11-21T02:44:39;9.52;;;4.50;;
54539;SDS011;40438;52.992;18.604;2023-11-21T02:47:04;9.85;;;5.20;;
54539;SDS011;40438;52.992;18.604;2023-11-21T02:49:30;10.80;;;5.25;;
54539;SDS011;40438;52.992;18.604;2023-11-21T02:51:56;14.13;;;5.38;;
54539;SDS011;40438;52.992;18.604;2023-11-21T02:54:22;11.90;;;5.63;;
54539;SDS011;40438;52.992;18.604;2023-11-21T02:56:48;15.57;;;5.47;;
54539;SDS011;40438;52.992;18.604;2023-11-21T02:59:16;12.23;;;5.60;;
54539;SDS011;40438;52.992;18.604;2023-11-21T03:01:41;10.07;;;5.57;;
54539;SDS011;40438;52.992;18.604;2023-11-21T03:04:07;13.77;;;5.10;;
54539;SDS011;40438;52.992;18.604;2023-11-21T03:06:33;15.48;;;6.18;;
54539;SDS011;40438;52.992;18.604;2023-11-21T03:08:59;13.15;;;5.28;;
54539;SDS011;40438;52.992;18.604;2023-11-21T03:11:25;13.52;;;5.53;;
54539;SDS011;40438;52.992;18.604;2023-11-21T03:13:51;10.35;;;5.65;;
54539;SDS011;40438;52.992;18.604;2023-11-21T03:16:18;12.00;;;5.65;;
54539;SDS011;40438;52.992;18.604;2023-11-21T03:18:45;13.02;;;5.60;;
54539;SDS011;40438;52.992;18.604;2023-11-21T03:21:11;11.50;;;5.90;;
54539;SDS011;40438;52.992;18.604;2023-11-21T03:23:37;13.52;;;5.93;;
54539;SDS011;40438;52.992;18.604;2023-11-21T03:26:03;14.38;;;5.90;;
54539;SDS011;40438;52.992;18.604;2023-11-21T03:28:29;11.82;;;5.65;;
54539;SDS011;40438;52.992;18.604;2023-11-21T03:30:56;11.50;;;5.45;;
54539;SDS011;40438;52.992;18.604;2023-11-21T03:33:24;12.23;;;5.63;;
54539;SDS011;40438;52.992;18.604;2023-11-21T03:35:50;13.27;;;6.05;;
54539;SDS011;40438;52.992;18.604;2023-11-21T03:38:16;13.98;;;5.93;;
54539;SDS011;40438;52.992;18.604;2023-11-21T03:40:42;10.02;;;4.78;;
54539;SDS011;40438;52.992;18.604;2023-11-21T03:43:07;15.77;;;6.13;;
54539;SDS011;40438;52.992;18.604;2023-11-21T03:45:33;13.13;;;5.43;;
54539;SDS011;40438;52.992;18.604;2023-11-21T03:47:59;11.95;;;5.85;;
54539;SDS011;40438;52.992;18.604;2023-11-21T03:50:26;13.93;;;6.15;;
54539;SDS011;40438;52.992;18.604;2023-11-21T03:52:52;15.15;;;6.43;;
54539;SDS011;40438;52.992;18.604;2023-11-21T03:55:18;17.40;;;7.28;;
54539;SDS011;40438;52.992;18.604;2023-11-21T03:57:43;14.27;;;6.43;;
54539;SDS011;40438;52.992;18.604;2023-11-21T04:00:10;21.00;;;7.78;;
54539;SDS011;40438;52.992;18.604;2023-11-21T04:02:39;12.80;;;6.18;;
54539;SDS011;40438;52.992;18.604;2023-11-21T04:05:05;17.92;;;6.40;;
54539;SDS011;40438;52.992;18.604;2023-11-21T04:07:32;15.50;;;6.38;;
54539;SDS011;40438;52.992;18.604;2023-11-21T04:09:58;18.05;;;6.47;;
54539;SDS011;40438;52.992;18.604;2023-11-21T04:12:24;15.27;;;7.05;;
54539;SDS011;40438;52.992;18.604;2023-11-21T04:14:50;13.93;;;6.07;;
54539;SDS011;40438;52.992;18.604;2023-11-21T04:17:17;15.02;;;6.53;;
54539;SDS011;40438;52.992;18.604;2023-11-21T04:19:43;13.73;;;6.40;;
54539;SDS011;40438;52.992;18.604;2023-11-21T04:22:09;16.42;;;6.35;;
54539;SDS011;40438;52.992;18.604;2023-11-21T04:24:36;15.82;;;6.85;;
54539;SDS011;40438;52.992;18.604;2023-11-21T04:27:02;14.95;;;6.60;;
54539;SDS011;40438;52.992;18.604;2023-11-21T04:29:28;19.05;;;8.18;;
54539;SDS011;40438;52.992;18.604;2023-11-21T04:31:53;23.05;;;7.25;;
54539;SDS011;40438;52.992;18.604;2023-11-21T04:34:19;12.95;;;6.47;;
54539;SDS011;40438;52.992;18.604;2023-11-21T04:36:45;18.95;;;8.05;;
54539;SDS011;40438;52.992;18.604;2023-11-21T04:39:11;13.05;;;6.25;;
54539;SDS011;40438;52.992;18.604;2023-11-21T04:41:38;14.13;;;6.20;;
54539;SDS011;40438;52.992;18.604;2023-11-21T04:44:04;17.15;;;7.63;;
54539;SDS011;40438;52.992;18.604;2023-11-21T04:46:30;15.23;;;6.88;;
54539;SDS011;40438;52.992;18.604;2023-11-21T04:48:56;13.65;;;6.30;;
54539;SDS011;40438;52.992;18.604;2023-11-21T04:51:22;20.17;;;7.70;;
54539;SDS011;40438;52.992;18.604;2023-11-21T04:53:47;17.17;;;7.07;;
54539;SDS011;40438;52.992;18.604;2023-11-21T04:56:13;14.75;;;6.22;;
54539;SDS011;40438;52.992;18.604;2023-11-21T04:58:40;18.38;;;7.75;;
54539;SDS011;40438;52.992;18.604;2023-11-21T05:01:07;19.10;;;8.45;;
54539;SDS011;40438;52.992;18.604;2023-11-21T05:03:33;19.15;;;7.40;;
54539;SDS011;40438;52.992;18.604;2023-11-21T05:05:59;17.08;;;6.82;;
54539;SDS011;40438;52.992;18.604;2023-11-21T05:08:25;23.27;;;8.07;;
54539;SDS011;40438;52.992;18.604;2023-11-21T05:10:51;22.23;;;8.80;;
54539;SDS011;40438;52.992;18.604;2023-11-21T05:13:17;15.00;;;6.75;;
54539;SDS011;40438;52.992;18.604;2023-11-21T05:15:44;17.27;;;7.30;;
54539;SDS011;40438;52.992;18.604;2023-11-21T05:18:10;18.15;;;7.53;;
54539;SDS011;40438;52.992;18.604;2023-11-21T05:20:36;12.85;;;6.30;;
54539;SDS011;40438;52.992;18.604;2023-11-21T05:23:01;19.50;;;7.35;;
54539;SDS011;40438;52.992;18.604;2023-11-21T05:25:27;18.73;;;7.10;;
54539;SDS011;40438;52.992;18.604;2023-11-21T05:27:53;17.58;;;7.35;;
54539;SDS011;40438;52.992;18.604;2023-11-21T05:30:19;17.65;;;7.95;;
54539;SDS011;40438;52.992;18.604;2023-11-21T05:32:46;19.65;;;6.93;;
54539;SDS011;40438;52.992;18.604;2023-11-21T05:35:12;17.77;;;7.45;;
54539;SDS011;40438;52.992;18.604;2023-11-21T05:37:38;18.92;;;7.05;;
54539;SDS011;40438;52.992;18.604;2023-11-21T05:40:05;17.20;;;6.82;;
54539;SDS011;40438;52.992;18.604;2023-11-21T05:42:32;20.98;;;8.23;;
54539;SDS011;40438;52.992;18.604;2023-11-21T05:44:58;16.17;;;6.85;;
54539;SDS011;40438;52.992;18.604;2023-11-21T05:47:24;21.30;;;7.63;;
54539;SDS011;40438;52.992;18.604;2023-11-21T05:49:51;20.05;;;7.32;;
54539;SDS011;40438;52.992;18.604;2023-11-21T05:52:17;19.77;;;8.05;;
54539;SDS011;40438;52.992;18.604;2023-11-21T05:54:43;21.55;;;8.07;;
54539;SDS011;40438;52.992;18.604;2023-11-21T05:57:09;17.52;;;7.00;;
54539;SDS011;40438;52.992;18.604;2023-11-21T05:59:35;23.05;;;8.70;;
54539;SDS011;40438;52.992;18.604;2023-11-21T06:02:00;21.23;;;6.63;;
54539;SDS011;40438;52.992;18.604;2023-11-21T06:04:26;16.38;;;6.45;;
54539;SDS011;40438;52.992;18.604;2023-11-21T06:06:53;15.18;;;7.28;;
54539;SDS011;40438;52.992;18.604;2023-11-21T06:09:19;15.88;;;6.40;;
54539;SDS011;40438;52.992;18.604;2023-11-21T06:11:45;17.98;;;7.10;;
54539;SDS011;40438;52.992;18.604;2023-11-21T06:14:11;14.98;;;5.70;;
54539;SDS011;40438;52.992;18.604;2023-11-21T06:16:37;17.40;;;6.53;;
54539;SDS011;40438;52.992;18.604;2023-11-21T06:19:02;14.52;;;6.72;;
54539;SDS011;40438;52.992;18.604;2023-11-21T06:21:28;16.67;;;6.53;;
54539;SDS011;40438;52.992;18.604;2023-11-21T06:23:55;18.25;;;5.90;;
54539;SDS011;40438;52.992;18.604;2023-11-21T06:26:21;18.17;;;6.68;;
54539;SDS011;40438;52.992;18.604;2023-11-21T06:28:47;16.58;;;7.40;;
54539;SDS011;40438;52.992;18.604;2023-11-21T06:31:13;17.88;;;7.40;;
54539;SDS011;40438;52.992;18.604;2023-11-21T06:33:38;15.75;;;6.95;;
54539;SDS011;40438;52.992;18.604;2023-11-21T06:36:04;14.15;;;6.00;;
54539;SDS011;40438;52.992;18.604;2023-11-21T06:38:31;13.73;;;6.22;;
54539;SDS011;40438;52.992;18.604;2023-11-21T06:40:58;14.95;;;6.25;;
54539;SDS011;40438;52.992;18.604;2023-11-21T06:43:24;13.63;;;5.53;;
54539;SDS011;40438;52.992;18.604;2023-11-21T06:45:50;16.83;;;6.97;;
54539;SDS011;40438;52.992;18.604;2023-11-21T06:48:16;17.98;;;5.93;;
54539;SDS011;40438;52.992;18.604;2023-11-21T06:50:42;15.00;;;6.15;;
54539;SDS011;40438;52.992;18.604;2023-11-21T06:53:08;15.95;;;7.28;;
54539;SDS011;40438;52.992;18.604;2023-11-21T06:55:33;19.30;;;6.68;;
54539;SDS011;40438;52.992;18.604;2023-11-21T06:58:01;15.27;;;6.40;;
54539;SDS011;40438;52.992;18.604;2023-11-21T07:00:27;15.40;;;6.90;;
54539;SDS011;40438;52.992;18.604;2023-11-21T07:02:53;14.98;;;6.82;;
54539;SDS011;40438;52.992;18.604;2023-11-21T07:05:18;19.20;;;6.47;;
54539;SDS011;40438;52.992;18.604;2023-11-21T07:07:45;12.20;;;5.60;;
54539;SDS011;40438;52.992;18.604;2023-11-21T07:10:11;15.68;;;5.85;;
54539;SDS011;40438;52.992;18.604;2023-11-21T07:12:37;10.48;;;5.68;;
54539;SDS011;40438;52.992;18.604;2023-11-21T07:15:05;14.55;;;5.40;;
54539;SDS011;40438;52.992;18.604;2023-11-21T07:17:31;18.02;;;5.75;;
54539;SDS011;40438;52.992;18.604;2023-11-21T07:19:58;22.90;;;5.82;;
54539;SDS011;40438;52.992;18.604;2023-11-21T07:22:24;13.45;;;6.05;;
54539;SDS011;40438;52.992;18.604;2023-11-21T07:24:50;12.73;;;5.90;;
54539;SDS011;40438;52.992;18.604;2023-11-21T07:27:15;13.75;;;5.45;;
54539;SDS011;40438;52.992;18.604;2023-11-21T07:29:41;15.35;;;6.15;;
54539;SDS011;40438;52.992;18.604;2023-11-21T07:32:08;11.45;;;5.30;;
54539;SDS011;40438;52.992;18.604;2023-11-21T07:34:34;17.42;;;6.60;;
54539;SDS011;40438;52.992;18.604;2023-11-21T07:37:00;15.50;;;6.40;;
54539;SDS011;40438;52.992;18.604;2023-11-21T07:39:26;16.35;;;6.38;;
54539;SDS011;40438;52.992;18.604;2023-11-21T07:41:51;15.45;;;6.18;;
54539;SDS011;40438;52.992;18.604;2023-11-21T07:44:17;14.27;;;5.95;;
54539;SDS011;40438;52.992;18.604;2023-11-21T07:46:43;16.80;;;6.72;;
54539;SDS011;40438;52.992;18.604;2023-11-21T07:49:10;14.57;;;6.32;;
54539;SDS011;40438;52.992;18.604;2023-11-21T07:51:36;18.73;;;7.15;;
54539;SDS011;40438;52.992;18.604;2023-11-21T07:54:02;19.98;;;7.15;;
54539;SDS011;40438;52.992;18.604;2023-11-21T07:56:28;19.35;;;6.40;;
54539;SDS011;40438;52.992;18.604;2023-11-21T07:58:54;13.50;;;5.22;;
54539;SDS011;40438;52.992;18.604;2023-11-21T08:01:19;17.77;;;6.95;;
54539;SDS011;40438;52.992;18.604;2023-11-21T08:03:45;21.63;;;6.50;;
54539;SDS011;40438;52.992;18.604;2023-11-21T08:06:12;14.05;;;6.13;;
54539;SDS011;40438;52.992;18.604;2023-11-21T08:08:38;16.25;;;6.15;;
54539;SDS011;40438;52.992;18.604;2023-11-21T08:11:04;16.60;;;5.93;;
54539;SDS011;40438;52.992;18.604;2023-11-21T08:13:30;17.50;;;6.18;;
54539;SDS011;40438;52.992;18.604;2023-11-21T08:15:56;18.98;;;6.03;;
54539;SDS011;40438;52.992;18.604;2023-11-21T08:18:23;17.83;;;6.80;;
54539;SDS011;40438;52.992;18.604;2023-11-21T08:20:48;15.55;;;7.15;;
54539;SDS011;40438;52.992;18.604;2023-11-21T08:23:16;21.05;;;6.82;;
54539;SDS011;40438;52.992;18.604;2023-11-21T08:25:42;15.10;;;6.47;;
54539;SDS011;40438;52.992;18.604;2023-11-21T08:28:08;19.45;;;6.75;;
54539;SDS011;40438;52.992;18.604;2023-11-21T08:30:34;19.92;;;6.75;;
54539;SDS011;40438;52.992;18.604;2023-11-21T08:32:59;16.40;;;6.97;;
54539;SDS011;40438;52.992;18.604;2023-11-21T08:35:25;19.75;;;6.65;;
54539;SDS011;40438;52.992;18.604;2023-11-21T08:37:51;16.13;;;6.55;;
54539;SDS011;40438;52.992;18.604;2023-11-21T08:40:18;13.05;;;6.22;;
54539;SDS011;40438;52.992;18.604;2023-11-21T08:42:44;14.60;;;6.47;;
54539;SDS011;40438;52.992;18.604;2023-11-21T08:45:10;19.55;;;6.82;;
54539;SDS011;40438;52.992;18.604;2023-11-21T08:47:36;14.25;;;5.95;;
54539;SDS011;40438;52.992;18.604;2023-11-21T08:50:01;21.85;;;7.05;;
54539;SDS011;40438;52.992;18.604;2023-11-21T08:52:27;18.90;;;7.60;;
54539;SDS011;40438;52.992;18.604;2023-11-21T08:54:53;17.83;;;7.50;;
54539;SDS011;40438;52.992;18.604;2023-11-21T08:57:20;19.27;;;6.40;;
54539;SDS011;40438;52.992;18.604;2023-11-21T08:59:46;19.75;;;7.00;;
54539;SDS011;40438;52.992;18.604;2023-11-21T09:02:12;21.80;;;7.65;;
54539;SDS011;40438;52.992;18.604;2023-11-21T09:04:38;15.23;;;6.40;;
54539;SDS011;40438;52.992;18.604;2023-11-21T09:07:04;15.30;;;7.00;;
54539;SDS011;40438;52.992;18.604;2023-11-21T09:09:29;17.60;;;6.47;;
54539;SDS011;40438;52.992;18.604;2023-11-21T09:11:55;15.60;;;6.13;;
54539;SDS011;40438;52.992;18.604;2023-11-21T09:14:22;13.50;;;6.65;;
54539;SDS011;40438;52.992;18.604;2023-11-21T09:16:48;16.35;;;6.65;;
54539;SDS011;40438;52.992;18.604;2023-11-21T09:19:14;16.50;;;7.00;;
54539;SDS011;40438;52.992;18.604;2023-11-21T09:21:40;22.73;;;6.45;;
54539;SDS011;40438;52.992;18.604;2023-11-21T09:24:06;16.15;;;7.35;;
54539;SDS011;40438;52.992;18.604;2023-11-21T09:26:32;13.05;;;5.50;;
54539;SDS011;40438;52.992;18.604;2023-11-21T09:28:58;16.13;;;6.13;;
54539;SDS011;40438;52.992;18.604;2023-11-21T09:31:25;14.60;;;5.55;;
54539;SDS011;40438;52.992;18.604;2023-11-21T09:33:52;14.88;;;5.80;;
54539;SDS011;40438;52.992;18.604;2023-11-21T09:36:18;12.57;;;5.90;;
54539;SDS011;40438;52.992;18.604;2023-11-21T09:38:44;13.52;;;5.95;;
54539;SDS011;40438;52.992;18.604;2023-11-21T09:41:11;15.38;;;6.43;;
54539;SDS011;40438;52.992;18.604;2023-11-21T09:43:42;19.35;;;6.47;;
54539;SDS011;40438;52.992;18.604;2023-11-21T09:46:11;14.80;;;6.32;;
54539;SDS011;40438;52.992;18.604;2023-11-21T09:48:40;14.65;;;6.00;;
54539;SDS011;40438;52.992;18.604;2023-11-21T09:51:06;13.20;;;5.65;;
54539;SDS011;40438;52.992;18.604;2023-11-21T09:53:34;13.77;;;5.78;;
54539;SDS011;40438;52.992;18.604;2023-11-21T09:56:00;17.33;;;6.40;;
54539;SDS011;40438;52.992;18.604;2023-11-21T09:58:26;11.13;;;4.95;;
54539;SDS011;40438;52.992;18.604;2023-11-21T10:00:53;14.52;;;6.15;;
54539;SDS011;40438;52.992;18.604;2023-11-21T10:03:20;15.90;;;5.97;;
54539;SDS011;40438;52.992;18.604;2023-11-21T10:05:48;16.65;;;6.63;;
54539;SDS011;40438;52.992;18.604;2023-11-21T10:08:17;14.10;;;6.00;;
54539;SDS011;40438;52.992;18.604;2023-11-21T10:10:45;17.13;;;6.97;;
54539;SDS011;40438;52.992;18.604;2023-11-21T10:13:14;17.65;;;6.72;;
54539;SDS011;40438;52.992;18.604;2023-11-21T10:15:40;17.60;;;6.32;;
54539;SDS011;40438;52.992;18.604;2023-11-21T10:18:07;13.57;;;6.32;;
54539;SDS011;40438;52.992;18.604;2023-11-21T10:20:33;17.88;;;5.47;;
54539;SDS011;40438;52.992;18.604;2023-11-21T10:23:01;17.05;;;6.40;;
54539;SDS011;40438;52.992;18.604;2023-11-21T10:25:26;15.32;;;6.55;;
54539;SDS011;40438;52.992;18.604;2023-11-21T10:27:56;13.18;;;5.57;;
54539;SDS011;40438;52.992;18.604;2023-11-21T10:30:24;11.60;;;5.25;;
54539;SDS011;40438;52.992;18.604;2023-11-21T10:32:54;10.57;;;5.50;;
54539;SDS011;40438;52.992;18.604;2023-11-21T10:35:24;12.90;;;6.57;;
54539;SDS011;40438;52.992;18.604;2023-11-21T10:37:54;16.02;;;6.57;;
54539;SDS011;40438;52.992;18.604;2023-11-21T10:40:27;16.23;;;6.30;;
54539;SDS011;40438;52.992;18.604;2023-11-21T10:42:53;21.60;;;7.82;;
54539;SDS011;40438;52.992;18.604;2023-11-21T10:45:19;19.08;;;6.45;;
54539;SDS011;40438;52.992;18.604;2023-11-21T10:47:44;18.95;;;6.93;;
54539;SDS011;40438;52.992;18.604;2023-11-21T10:50:10;15.65;;;5.80;;
54539;SDS011;40438;52.992;18.604;2023-11-21T10:52:36;15.82;;;6.22;;
54539;SDS011;40438;52.992;18.604;2023-11-21T10:55:03;16.27;;;6.32;;
54539;SDS011;40438;52.992;18.604;2023-11-21T10:57:41;18.95;;;6.72;;
54539;SDS011;40438;52.992;18.604;2023-11-21T11:00:08;13.00;;;6.15;;
54539;SDS011;40438;52.992;18.604;2023-11-21T11:02:35;15.27;;;6.45;;
54539;SDS011;40438;52.992;18.604;2023-11-21T11:05:01;15.25;;;6.68;;
54539;SDS011;40438;52.992;18.604;2023-11-21T11:07:28;18.73;;;7.10;;
54539;SDS011;40438;52.992;18.604;2023-11-21T11:09:54;17.88;;;7.50;;
54539;SDS011;40438;52.992;18.604;2023-11-21T11:12:22;17.02;;;8.60;;
54539;SDS011;40438;52.992;18.604;2023-11-21T11:14:48;15.55;;;8.25;;
54539;SDS011;40438;52.992;18.604;2023-11-21T11:17:14;22.65;;;8.55;;
54539;SDS011;40438;52.992;18.604;2023-11-21T11:19:40;15.88;;;7.65;;
54539;SDS011;40438;52.992;18.604;2023-11-21T11:22:08;21.98;;;10.25;;
54539;SDS011;40438;52.992;18.604;2023-11-21T11:24:55;18.75;;;7.35;;
54539;SDS011;40438;52.992;18.604;2023-11-21T11:27:34;13.55;;;7.07;;
54539;SDS011;40438;52.992;18.604;2023-11-21T11:30:09;28.30;;;14.55;;
54539;SDS011;40438;52.992;18.604;2023-11-21T11:32:43;21.13;;;9.32;;
54539;SDS011;40438;52.992;18.604;2023-11-21T11:35:19;18.98;;;8.73;;
54539;SDS011;40438;52.992;18.604;2023-11-21T11:37:51;14.23;;;7.53;;
54539;SDS011;40438;52.992;18.604;2023-11-21T11:40:17;20.30;;;8.00;;
54539;SDS011;40438;52.992;18.604;2023-11-21T11:42:56;20.90;;;9.82;;
54539;SDS011;40438;52.992;18.604;2023-11-21T11:45:22;23.75;;;10.30;;
54539;SDS011;40438;52.992;18.604;2023-11-21T11:47:56;23.40;;;8.38;;
54539;SDS011;40438;52.992;18.604;2023-11-21T11:50:22;19.60;;;7.43;;
54539;SDS011;40438;52.992;18.604;2023-11-21T11:52:48;18.35;;;7.80;;
54539;SDS011;40438;52.992;18.604;2023-11-21T11:55:15;16.73;;;7.30;;
54539;SDS011;40438;52.992;18.604;2023-11-21T11:57:41;18.98;;;7.35;;
54539;SDS011;40438;52.992;18.604;2023-11-21T12:00:11;15.40;;;7.38;;
54539;SDS011;40438;52.992;18.604;2023-11-21T12:02:41;15.77;;;7.10;;
54539;SDS011;40438;52.992;18.604;2023-11-21T12:05:09;13.95;;;6.07;;
54539;SDS011;40438;52.992;18.604;2023-11-21T12:07:41;14.45;;;6.85;;
54539;SDS011;40438;52.992;18.604;2023-11-21T12:10:09;17.25;;;7.05;;
54539;SDS011;40438;52.992;18.604;2023-11-21T12:12:37;20.08;;;9.98;;
54539;SDS011;40438;52.992;18.604;2023-11-21T12:15:06;22.25;;;9.88;;
54539;SDS011;40438;52.992;18.604;2023-11-21T12:17:34;27.48;;;13.43;;
54539;SDS011;40438;52.992;18.604;2023-11-21T12:20:01;27.52;;;13.35;;
54539;SDS011;40438;52.992;18.604;2023-11-21T12:22:28;32.55;;;15.05;;
54539;SDS011;40438;52.992;18.604;2023-11-21T12:24:54;25.15;;;12.35;;
54539;SDS011;40438;52.992;18.604;2023-11-21T12:27:20;28.35;;;15.15;;
54539;SDS011;40438;52.992;18.604;2023-11-21T12:29:46;46.25;;;23.30;;
54539;SDS011;40438;52.992;18.604;2023-11-21T12:32:12;31.85;;;14.90;;
54539;SDS011;40438;52.992;18.604;2023-11-21T12:34:39;27.10;;;10.32;;
54539;SDS011;40438;52.992;18.604;2023-11-21T12:37:05;33.03;;;10.18;;
54539;SDS011;40438;52.992;18.604;2023-11-21T12:39:31;23.38;;;9.05;;
54539;SDS011;40438;52.992;18.604;2023-11-21T12:41:57;19.58;;;8.45;;
54539;SDS011;40438;52.992;18.604;2023-11-21T12:44:23;24.40;;;8.88;;
54539;SDS011;40438;52.992;18.604;2023-11-21T12:46:49;20.02;;;7.70;;
54539;SDS011;40438;52.992;18.604;2023-11-21T12:49:15;33.65;;;12.45;;
54539;SDS011;40438;52.992;18.604;2023-11-21T12:51:42;45.13;;;21.35;;
54539;SDS011;40438;52.992;18.604;2023-11-21T12:54:08;32.97;;;14.98;;
54539;SDS011;40438;52.992;18.604;2023-11-21T12:56:37;33.88;;;14.23;;
54539;SDS011;40438;52.992;18.604;2023-11-21T12:59:03;30.88;;;14.68;;
54539;SDS011;40438;52.992;18.604;2023-11-21T13:01:29;27.77;;;11.25;;
54539;SDS011;40438;52.992;18.604;2023-11-21T13:03:56;18.83;;;8.57;;
54539;SDS011;40438;52.992;18.604;2023-11-21T13:06:22;25.13;;;11.15;;
54539;SDS011;40438;52.992;18.604;2023-11-21T13:08:50;27.25;;;12.00;;
54539;SDS011;40438;52.992;18.604;2023-11-21T13:11:16;27.98;;;12.43;;
54539;SDS011;40438;52.992;18.604;2023-11-21T13:13:42;29.48;;;14.77;;
54539;SDS011;40438;52.992;18.604;2023-11-21T13:16:08;29.27;;;12.35;;
54539;SDS011;40438;52.992;18.604;2023-11-21T13:18:34;23.88;;;11.48;;
54539;SDS011;40438;52.992;18.604;2023-11-21T13:21:01;18.23;;;9.73;;
54539;SDS011;40438;52.992;18.604;2023-11-21T13:23:28;22.15;;;9.63;;
54539;SDS011;40438;52.992;18.604;2023-11-21T13:25:55;18.67;;;7.88;;
54539;SDS011;40438;52.992;18.604;2023-11-21T13:28:21;18.40;;;8.23;;
54539;SDS011;40438;52.992;18.604;2023-11-21T13:30:46;18.15;;;6.70;;
54539;SDS011;40438;52.992;18.604;2023-11-21T13:33:12;17.02;;;7.53;;
54539;SDS011;40438;52.992;18.604;2023-11-21T13:35:38;22.92;;;7.53;;
54539;SDS011;40438;52.992;18.604;2023-11-21T13:38:05;24.23;;;7.47;;
54539;SDS011;40438;52.992;18.604;2023-11-21T13:40:32;19.10;;;7.45;;
54539;SDS011;40438;52.992;18.604;2023-11-21T13:43:00;18.30;;;6.60;;
54539;SDS011;40438;52.992;18.604;2023-11-21T13:45:25;14.15;;;6.05;;
54539;SDS011;40438;52.992;18.604;2023-11-21T13:47:51;15.15;;;5.70;;
54539;SDS011;40438;52.992;18.604;2023-11-21T13:50:18;13.23;;;6.25;;
54539;SDS011;40438;52.992;18.604;2023-11-21T13:52:44;17.15;;;6.53;;
54539;SDS011;40438;52.992;18.604;2023-11-21T13:55:10;13.88;;;5.65;;
54539;SDS011;40438;52.992;18.604;2023-11-21T13:57:36;19.38;;;6.28;;
54539;SDS011;40438;52.992;18.604;2023-11-21T14:00:03;23.30;;;9.80;;
54539;SDS011;40438;52.992;18.604;2023-11-21T14:02:30;18.80;;;8.85;;
54539;SDS011;40438;52.992;18.604;2023-11-21T14:04:56;26.75;;;12.95;;
54539;SDS011;40438;52.992;18.604;2023-11-21T14:07:22;45.22;;;21.25;;
54539;SDS011;40438;52.992;18.604;2023-11-21T14:09:48;25.48;;;14.40;;
54539;SDS011;40438;52.992;18.604;2023-11-21T14:12:14;17.85;;;7.57;;
54539;SDS011;40438;52.992;18.604;2023-11-21T14:14:40;17.80;;;7.53;;
54539;SDS011;40438;52.992;18.604;2023-11-21T14:17:08;19.13;;;7.93;;